Time;durP1;ratioP1;P1;durP2;ratioP2;P2;SDS_P1;SDS_P2;PMS_P1;PMS_P2;Temp;Humidity;BMP_temperature;BMP_pressure;BME280_temperature;BME280_humidity;BME280_pressure;Samples;Min_cycle;Max_cycle;Signal;HPM_P1;HPM_P2
2022/06/05 00:01:04;;;;;;;5.13;3.17;;;11.20;99.90;;;;;;4998998;28;20478;-71
2022/06/05 00:03:45;;;;;;;6.85;3.90;;;11.10;99.90;;;;;;5011074;28;20049;-72
2022/06/05 00:06:16;;;;;;;4.32;3.53;;;11.10;99.90;;;;;;5024691;28;20053;-71
2022/06/05 00:08:56;;;;;;;6.28;3.80;;;11.10;99.90;;;;;;5030539;28;20064;-72
2022/06/05 00:11:23;;;;;;;6.38;4.65;;;11.10;99.90;;;;;;5020982;28;20111;-69
2022/06/05 00:13:55;;;;;;;4.57;3.60;;;11.10;99.90;;;;;;5018428;28;20038;-71
2022/06/05 00:16:26;;;;;;;5.75;4.57;;;11.00;99.90;;;;;;5017927;28;20046;-70
2022/06/05 00:18:52;;;;;;;6.45;4.05;;;11.10;99.90;;;;;;5030151;28;20063;-71
2022/06/05 00:21:18;;;;;;;4.10;3.28;;;11.00;99.90;;;;;;5027333;28;20121;-76
2022/06/05 00:23:44;;;;;;;;;;;11.00;99.90;;;;;;5031501;28;20042;-76
2022/06/05 00:26:25;;;;;;;5.55;3.45;;;11.10;99.90;;;;;;5027684;28;19924;-75
2022/06/05 00:29:06;;;;;;;4.53;3.90;;;11.10;99.90;;;;;;5026530;28;20139;-76
2022/06/05 00:31:57;;;;;;;5.65;3.90;;;11.00;99.90;;;;;;5026277;28;20041;-76
2022/06/05 00:34:22;;;;;;;7.63;4.28;;;11.00;99.90;;;;;;5024512;28;20038;-76
2022/06/05 00:37:10;;;;;;;9.18;4.53;;;11.00;99.90;;;;;;5027608;28;20040;-77
2022/06/05 00:39:39;;;;;;;6.90;4.32;;;11.10;99.90;;;;;;5028411;28;20092;-75
2022/06/05 00:42:16;;;;;;;5.68;4.50;;;11.00;99.90;;;;;;5025513;28;20057;-75
2022/06/05 00:44:52;;;;;;;7.95;4.65;;;10.90;99.90;;;;;;5009698;28;20052;-76
2022/06/05 00:47:21;;;;;;;7.40;4.05;;;11.00;99.90;;;;;;5027355;28;20430;-75
2022/06/05 00:50:16;;;;;;;4.25;3.78;;;11.00;99.90;;;;;;5029207;28;20093;-75
2022/06/05 00:52:46;;;;;;;5.10;4.53;;;11.00;99.90;;;;;;5028146;28;20044;-75
2022/06/05 00:55:12;;;;;;;7.00;4.40;;;11.00;99.90;;;;;;5004202;28;20033;-76
2022/06/05 00:57:39;;;;;;;7.00;4.90;;;11.10;99.90;;;;;;5024363;28;20040;-75
2022/06/05 01:00:19;;;;;;;6.22;3.92;;;11.00;99.90;;;;;;5013121;28;20394;-75
2022/06/05 01:02:48;;;;;;;5.25;3.60;;;11.00;99.90;;;;;;5024686;28;20425;-76
2022/06/05 01:05:16;;;;;;;4.47;3.55;;;11.00;99.90;;;;;;5028749;28;20056;-76
2022/06/05 01:07:42;;;;;;;4.72;3.50;;;11.10;99.90;;;;;;5030177;28;20038;-77
2022/06/05 01:10:09;;;;;;;6.50;4.43;;;11.10;99.90;;;;;;5019681;28;20057;-77
2022/06/05 01:12:41;;;;;;;5.68;4.32;;;11.10;99.90;;;;;;5020181;28;20092;-76
2022/06/05 01:15:23;;;;;;;8.30;4.68;;;11.00;99.90;;;;;;5019918;28;20515;-76
2022/06/05 01:18:04;;;;;;;11.43;4.88;;;11.00;99.90;;;;;;5029996;28;20096;-75
2022/06/05 01:20:39;;;;;;;6.80;4.43;;;11.10;99.90;;;;;;5027332;28;20045;-74
2022/06/05 01:23:41;;;;;;;4.88;3.90;;;11.10;99.90;;;;;;5026720;28;20053;-75
2022/06/05 01:26:21;;;;;;;5.70;3.67;;;11.10;99.90;;;;;;5001651;28;20498;-75
2022/06/05 01:28:59;;;;;;;4.78;3.33;;;11.20;99.90;;;;;;5012536;28;20056;-75
2022/06/05 01:31:38;;;;;;;6.53;4.07;;;11.10;99.90;;;;;;5023003;28;20038;-76
2022/06/05 01:34:10;;;;;;;5.72;3.55;;;11.10;99.90;;;;;;5019998;28;20037;-75
2022/06/05 01:36:45;;;;;;;5.18;4.03;;;11.10;99.90;;;;;;5028424;28;20450;-76
2022/06/05 01:39:16;;;;;;;4.85;3.42;;;11.10;99.90;;;;;;5027529;28;20045;-75
2022/06/05 01:41:55;;;;;;;5.80;3.50;;;11.20;99.90;;;;;;5028096;28;20080;-75
2022/06/05 01:44:44;;;;;;;4.90;3.58;;;11.20;99.90;;;;;;5019629;28;20116;-75
2022/06/05 01:47:23;;;;;;;3.42;2.90;;;11.10;99.90;;;;;;5018545;28;20116;-75
2022/06/05 01:50:07;;;;;;;5.50;4.28;;;11.10;99.90;;;;;;5021797;28;20050;-71
2022/06/05 01:52:57;;;;;;;5.97;3.22;;;11.20;99.90;;;;;;5023343;28;20128;-71
2022/06/05 01:55:38;;;;;;;7.25;4.25;;;11.10;99.90;;;;;;5014620;28;20180;-71
2022/06/05 01:58:07;;;;;;;8.20;5.15;;;11.20;99.90;;;;;;5022940;28;20048;-71
2022/06/05 02:00:33;;;;;;;6.35;3.97;;;11.10;99.90;;;;;;5017525;28;20147;-71
2022/06/05 02:03:28;;;;;;;6.13;4.18;;;11.10;99.90;;;;;;5008863;28;20519;-71
2022/06/05 02:06:00;;;;;;;6.03;4.35;;;11.30;99.90;;;;;;5024791;28;20478;-71
2022/06/05 02:08:33;;;;;;;6.53;3.40;;;11.30;99.90;;;;;;5028790;28;20041;-70
2022/06/05 02:11:10;;;;;;;7.07;4.30;;;11.30;99.90;;;;;;5029229;28;20076;-75
2022/06/05 02:13:36;;;;;;;6.55;4.47;;;11.20;99.90;;;;;;5017145;28;20108;-75
2022/06/05 02:16:02;;;;;;;5.70;3.60;;;11.20;99.90;;;;;;4995278;28;20085;-75
2022/06/05 02:18:28;;;;;;;5.53;3.80;;;11.30;99.90;;;;;;5011014;28;20106;-75
2022/06/05 02:20:54;;;;;;;8.35;3.92;;;11.30;99.90;;;;;;5013235;28;20565;-75
2022/06/05 02:23:23;;;;;;;7.07;3.85;;;11.20;99.90;;;;;;5028195;28;20057;-75
2022/06/05 02:25:50;;;;;;;4.70;3.20;;;11.30;99.90;;;;;;5017476;28;20041;-76
2022/06/05 02:28:18;;;;;;;4.07;3.08;;;11.30;99.90;;;;;;5028207;28;20041;-75
2022/06/05 02:30:57;;;;;;;7.00;4.65;;;11.30;99.90;;;;;;5021606;28;20049;-75
2022/06/05 02:33:53;;;;;;;5.75;3.30;;;11.30;99.90;;;;;;5027194;28;20425;-75
2022/06/05 02:36:41;;;;;;;5.03;3.17;;;11.30;99.90;;;;;;5019888;28;20129;-75
2022/06/05 02:39:38;;;;;;;4.85;3.50;;;11.40;99.90;;;;;;5023989;28;20046;-76
2022/06/05 02:42:22;;;;;;;5.25;3.38;;;11.40;99.90;;;;;;5026693;28;20124;-76
2022/06/05 02:44:55;;;;;;;5.57;3.70;;;11.30;99.90;;;;;;5017928;28;20049;-76
2022/06/05 02:47:39;;;;;;;6.25;3.75;;;11.30;99.90;;;;;;5022625;28;20602;-76
2022/06/05 02:50:31;;;;;;;4.72;3.35;;;11.40;99.90;;;;;;5013889;28;20081;-76
2022/06/05 02:53:03;;;;;;;6.43;4.65;;;11.30;99.90;;;;;;5024897;28;20391;-76
2022/06/05 02:55:29;;;;;;;5.57;4.07;;;11.40;99.90;;;;;;5028001;28;20045;-76
2022/06/05 02:57:56;;;;;;;5.45;4.18;;;11.40;99.90;;;;;;5028625;28;20068;-76
2022/06/05 03:00:23;;;;;;;;;;;11.40;99.90;;;;;;5026828;28;20033;-76
2022/06/05 03:05:34;;;;;;;7.80;5.40;;;11.50;99.90;;;;;;5009334;28;20494;-76
2022/06/05 03:08:00;;;;;;;7.80;5.63;;;11.40;99.90;;;;;;5026120;28;20092;-76
2022/06/05 03:10:26;;;;;;;7.38;4.90;;;11.50;99.90;;;;;;5026549;28;20077;-76
2022/06/05 03:12:52;;;;;;;;;;;11.50;99.90;;;;;;5024642;28;20034;-75
2022/06/05 03:15:18;;;;;;;6.72;5.25;;;11.50;99.90;;;;;;5007623;28;22500;-76
2022/06/05 03:17:44;;;;;;;;;;;11.60;99.90;;;;;;5026145;28;20537;-76
2022/06/05 03:20:13;;;;;;;7.63;4.55;;;11.50;99.90;;;;;;5011966;28;19995;-75
2022/06/05 03:22:39;;;;;;;5.78;4.55;;;11.40;99.90;;;;;;5028255;28;20041;-76
2022/06/05 03:25:06;;;;;;;7.70;5.00;;;11.60;99.90;;;;;;5020872;28;20045;-76
2022/06/05 03:27:32;;;;;;;7.13;4.68;;;11.50;99.90;;;;;;5022195;28;20072;-76
2022/06/05 03:29:58;;;;;;;7.78;5.15;;;11.50;99.90;;;;;;5030030;28;20042;-76
2022/06/05 03:32:25;;;;;;;6.25;4.72;;;11.50;99.90;;;;;;5014591;28;20038;-76
2022/06/05 03:34:51;;;;;;;4.78;3.90;;;11.70;99.90;;;;;;5030196;28;20053;-76
2022/06/05 03:37:17;;;;;;;4.82;3.60;;;11.70;99.90;;;;;;5031477;28;20045;-76
2022/06/05 03:39:43;;;;;;;6.93;4.70;;;11.60;99.90;;;;;;5031980;28;20117;-76
2022/06/05 03:42:08;;;;;;;7.28;4.97;;;11.70;99.90;;;;;;5014530;28;20060;-76
2022/06/05 03:44:39;;;;;;;6.90;5.00;;;11.70;99.90;;;;;;5021564;28;20081;-76
2022/06/05 03:47:07;;;;;;;8.40;4.88;;;11.80;99.90;;;;;;4996249;28;20117;-76
2022/06/05 03:49:34;;;;;;;8.15;5.53;;;11.80;99.90;;;;;;5030969;28;20132;-76
2022/06/05 03:52:00;;;;;;;7.50;5.65;;;11.80;99.90;;;;;;5019580;28;20042;-76
2022/06/05 03:54:26;;;;;;;6.60;4.70;;;11.70;99.90;;;;;;5032122;28;20037;-76
2022/06/05 03:56:52;;;;;;;6.65;5.18;;;11.90;99.90;;;;;;5031942;28;20498;-76
2022/06/05 03:59:18;;;;;;;6.25;4.93;;;11.90;99.90;;;;;;5018407;28;20120;-76
2022/06/05 04:01:43;;;;;;;8.30;5.47;;;11.90;99.90;;;;;;5026968;28;20116;-76
2022/06/05 04:04:09;;;;;;;6.70;4.85;;;11.90;99.90;;;;;;5029048;28;20044;-76
2022/06/05 04:06:35;;;;;;;7.90;5.07;;;11.90;99.90;;;;;;5013397;28;20045;-76
2022/06/05 04:09:05;;;;;;;6.75;5.15;;;11.80;99.90;;;;;;5031178;28;20041;-75
2022/06/05 04:11:33;;;;;;;7.80;5.05;;;12.00;99.90;;;;;;5013267;28;20064;-76
2022/06/05 04:13:59;;;;;;;8.63;5.47;;;11.90;99.90;;;;;;5031440;28;20467;-76
2022/06/05 04:16:26;;;;;;;7.28;5.40;;;12.00;99.90;;;;;;5014837;28;20092;-75
2022/06/05 04:18:52;;;;;;;9.43;5.88;;;12.10;99.90;;;;;;5031036;28;20449;-76
2022/06/05 04:21:25;;;;;;;6.03;4.43;;;12.20;99.90;;;;;;5029138;28;20050;-77
2022/06/05 04:23:51;;;;;;;7.68;4.72;;;12.20;99.90;;;;;;5024480;28;20049;-76
2022/06/05 04:26:20;;;;;;;10.35;6.38;;;12.10;99.90;;;;;;5029013;28;20469;-75
2022/06/05 04:28:46;;;;;;;9.25;5.93;;;12.20;99.90;;;;;;5023279;28;20483;-76
2022/06/05 04:31:17;;;;;;;7.68;5.40;;;12.30;99.90;;;;;;5028417;28;20683;-76
2022/06/05 04:33:42;;;;;;;6.57;4.68;;;12.30;99.90;;;;;;5023852;28;20391;-76
2022/06/05 04:36:08;;;;;;;4.90;4.03;;;12.40;99.90;;;;;;4996592;28;20041;-76
2022/06/05 04:38:34;;;;;;;6.25;5.20;;;12.30;99.90;;;;;;5000098;28;20041;-76
2022/06/05 04:40:59;;;;;;;5.90;4.32;;;12.50;99.90;;;;;;5009819;28;20474;-77
2022/06/05 04:43:25;;;;;;;7.13;4.65;;;12.50;99.90;;;;;;4978560;28;20471;-76
2022/06/05 04:45:51;;;;;;;8.32;6.03;;;12.60;99.90;;;;;;5007368;28;20041;-76
2022/06/05 04:48:16;;;;;;;7.65;5.32;;;12.70;99.90;;;;;;5028164;28;20056;-76
2022/06/05 04:50:42;;;;;;;8.00;5.30;;;12.90;99.90;;;;;;5012791;28;20183;-71
2022/06/05 04:53:08;;;;;;;7.18;5.30;;;13.00;99.90;;;;;;5028381;28;20033;-75
2022/06/05 04:55:35;;;;;;;;;;;12.90;99.90;;;;;;5025118;28;20079;-76
2022/06/05 04:58:01;;;;;;;7.22;5.15;;;13.10;99.90;;;;;;5025833;28;19923;-77
2022/06/05 05:00:27;;;;;;;;;;;13.20;99.90;;;;;;5016874;28;20049;-71
2022/06/05 05:02:53;;;;;;;8.75;6.03;;;13.10;99.90;;;;;;5021360;28;19928;-72
2022/06/05 05:05:19;;;;;;;7.68;5.72;;;13.10;99.90;;;;;;5029891;28;20041;-72
2022/06/05 05:07:44;;;;;;;5.78;4.55;;;13.20;99.90;;;;;;5024852;28;20050;-71
2022/06/05 05:10:10;;;;;;;6.57;5.30;;;13.20;99.90;;;;;;5011863;28;20114;-71
2022/06/05 05:12:36;;;;;;;;;;;13.30;99.90;;;;;;5028306;28;20042;-71
2022/06/05 05:15:02;;;;;;;6.63;4.97;;;13.30;99.90;;;;;;5015411;28;19925;-70
2022/06/05 05:17:28;;;;;;;7.30;5.38;;;13.30;99.90;;;;;;5029269;28;20045;-70
2022/06/05 05:19:55;;;;;;;6.65;5.03;;;13.30;99.90;;;;;;5026617;28;20054;-72
2022/06/05 05:22:21;;;;;;;6.97;4.50;;;13.30;99.90;;;;;;5028172;28;20049;-71
2022/06/05 05:24:47;;;;;;;7.28;5.07;;;13.30;99.90;;;;;;5028146;28;20047;-71
2022/06/05 05:27:13;;;;;;;7.50;5.72;;;13.30;99.90;;;;;;5027787;28;20103;-71
2022/06/05 05:29:40;;;;;;;8.98;5.90;;;13.50;99.90;;;;;;5013771;28;20045;-72
2022/06/05 05:32:08;;;;;;;6.80;5.72;;;13.40;99.90;;;;;;5011010;28;20051;-72
2022/06/05 05:34:34;;;;;;;7.35;6.50;;;13.60;99.90;;;;;;5026193;28;20049;-72
2022/06/05 05:36:59;;;;;;;7.63;6.10;;;13.70;99.90;;;;;;5003714;28;20564;-71
2022/06/05 05:42:11;;;;;;;7.32;5.35;;;13.80;99.90;;;;;;5027649;28;20049;-70
2022/06/05 05:44:40;;;;;;;6.43;4.60;;;14.00;99.90;;;;;;5025885;28;20477;-71
2022/06/05 05:47:08;;;;;;;6.53;4.97;;;14.20;99.90;;;;;;5022398;28;20055;-70
2022/06/05 05:49:34;;;;;;;5.80;5.22;;;14.30;99.90;;;;;;5029457;28;20076;-71
2022/06/05 05:52:00;;;;;;;7.57;6.35;;;14.40;99.90;;;;;;5039651;28;20041;-72
2022/06/05 05:54:26;;;;;;;8.07;6.32;;;14.50;99.90;;;;;;5026105;28;20434;-72
2022/06/05 05:56:52;;;;;;;7.63;5.40;;;14.40;99.90;;;;;;5005007;28;20436;-72
2022/06/05 05:59:19;;;;;;;6.07;4.70;;;14.60;99.90;;;;;;5042249;28;20091;-72
2022/06/05 06:01:45;;;;;;;6.13;4.78;;;14.60;99.90;;;;;;5035104;28;20036;-72
2022/06/05 06:04:11;;;;;;;5.65;4.32;;;14.70;99.90;;;;;;5042295;28;20055;-72
2022/06/05 06:06:40;;;;;;;;;;;14.70;99.90;;;;;;5011531;28;20073;-72
2022/06/05 06:09:05;;;;;;;4.20;3.80;;;14.80;99.90;;;;;;5049814;28;20012;-72
2022/06/05 06:11:31;;;;;;;4.25;3.50;;;14.90;99.90;;;;;;5011898;28;20786;-72
2022/06/05 06:13:57;;;;;;;5.53;4.43;;;14.90;99.90;;;;;;5013441;28;20394;-72
2022/06/05 06:16:23;;;;;;;5.45;4.70;;;15.00;99.90;;;;;;5010773;28;20068;-72
2022/06/05 06:18:48;;;;;;;4.25;3.47;;;15.00;99.90;;;;;;5027358;28;20091;-72
2022/06/05 06:21:14;;;;;;;4.82;4.32;;;15.10;99.90;;;;;;5028170;28;20053;-72
2022/06/05 06:23:40;;;;;;;5.90;3.97;;;15.20;99.90;;;;;;5026310;28;20029;-72
2022/06/05 06:26:08;;;;;;;6.93;4.20;;;15.20;99.90;;;;;;5026567;28;20041;-72
2022/06/05 06:28:33;;;;;;;6.43;4.57;;;15.30;99.90;;;;;;5027255;28;20470;-73
2022/06/05 06:31:04;;;;;;;6.28;4.60;;;15.40;99.90;;;;;;5026473;28;20045;-72
2022/06/05 06:33:30;;;;;;;5.70;4.55;;;15.40;99.90;;;;;;5029378;28;20038;-71
2022/06/05 06:35:59;;;;;;;6.93;4.80;;;15.50;99.90;;;;;;5026364;28;20041;-72
2022/06/05 06:38:24;;;;;;;5.45;4.70;;;15.50;99.90;;;;;;5025265;28;20050;-72
2022/06/05 06:40:58;;;;;;;4.70;4.20;;;15.60;99.90;;;;;;5028710;28;20064;-72
2022/06/05 06:43:24;;;;;;;5.80;4.95;;;15.70;99.90;;;;;;5012917;28;20398;-71
2022/06/05 06:45:52;;;;;;;5.13;3.53;;;15.70;99.90;;;;;;5026510;28;20037;-72
2022/06/05 06:48:18;;;;;;;3.40;3.10;;;15.90;99.90;;;;;;5027656;28;20073;-72
2022/06/05 06:50:47;;;;;;;3.22;2.85;;;16.00;99.90;;;;;;5028045;28;20080;-78
2022/06/05 06:53:13;;;;;;;3.97;3.10;;;16.20;99.90;;;;;;5016493;28;20046;-77
2022/06/05 06:55:38;;;;;;;4.88;3.80;;;16.30;99.90;;;;;;5022574;28;20087;-77
2022/06/05 06:58:04;;;;;;;5.13;3.78;;;16.30;99.90;;;;;;5018771;28;20037;-77
2022/06/05 07:00:30;;;;;;;6.10;5.25;;;16.40;99.90;;;;;;5021039;28;20042;-76
2022/06/05 07:02:55;;;;;;;4.90;4.22;;;16.40;99.90;;;;;;5024466;28;20049;-76
2022/06/05 07:05:21;;;;;;;7.38;4.82;;;16.50;99.90;;;;;;5031342;28;20049;-76
2022/06/05 07:07:47;;;;;;;5.55;4.38;;;16.50;99.90;;;;;;5023088;28;20072;-77
2022/06/05 07:10:13;;;;;;;4.72;4.10;;;16.60;99.90;;;;;;5024529;28;20514;-76
2022/06/05 07:12:39;;;;;;;4.45;3.83;;;16.80;99.90;;;;;;5013012;28;20483;-77
2022/06/05 07:15:06;;;;;;;4.50;3.97;;;16.80;99.90;;;;;;5029588;28;20053;-76
2022/06/05 07:17:32;;;;;;;6.20;4.10;;;17.00;99.90;;;;;;5005427;28;20044;-77
2022/06/05 07:19:58;;;;;;;4.38;3.50;;;17.10;99.90;;;;;;5030937;28;20111;-76
2022/06/05 07:22:24;;;;;;;;;;;17.20;99.90;;;;;;5030398;28;20060;-76
2022/06/05 07:24:50;;;;;;;4.25;3.85;;;17.20;99.90;;;;;;5018536;28;19917;-76
2022/06/05 07:27:17;;;;;;;4.22;3.70;;;17.30;99.90;;;;;;5018353;28;20037;-77
2022/06/05 07:29:42;;;;;;;5.25;4.40;;;17.50;99.90;;;;;;5025595;28;20046;-77
2022/06/05 07:32:08;;;;;;;4.78;3.90;;;17.50;99.90;;;;;;5031796;28;20041;-76
2022/06/05 07:34:35;;;;;;;;;;;17.60;99.90;;;;;;5028457;28;20052;-77
2022/06/05 07:37:01;;;;;;;4.97;4.43;;;17.60;99.90;;;;;;5014719;28;19959;-76
2022/06/05 07:39:29;;;;;;;5.22;4.25;;;17.70;99.90;;;;;;5013406;28;20455;-76
2022/06/05 07:41:58;;;;;;;4.28;3.60;;;17.70;99.90;;;;;;5013530;28;20052;-76
2022/06/05 07:44:25;;;;;;;5.65;3.67;;;17.90;99.90;;;;;;5008706;28;20164;-77
2022/06/05 07:46:50;;;;;;;7.28;5.10;;;17.90;99.90;;;;;;5027472;28;20116;-75
2022/06/05 07:49:16;;;;;;;;;;;18.00;99.90;;;;;;5032539;28;20550;-76
2022/06/05 07:54:27;;;;;;;4.65;4.00;;;18.20;99.90;;;;;;5025707;28;20513;-75
2022/06/05 07:56:53;;;;;;;4.80;4.30;;;18.40;99.90;;;;;;5014357;28;20045;-76
2022/06/05 07:59:19;;;;;;;5.95;4.78;;;18.50;99.90;;;;;;5031390;28;20049;-76
2022/06/05 08:01:45;;;;;;;;;;;18.50;99.90;;;;;;5033057;28;20045;-76
2022/06/05 08:04:11;;;;;;;4.35;3.78;;;18.70;99.90;;;;;;5013798;28;19924;-75
2022/06/05 08:06:37;;;;;;;4.20;3.55;;;18.70;99.90;;;;;;5015668;28;20041;-76
2022/06/05 08:09:03;;;;;;;;;;;18.90;99.90;;;;;;5015254;28;20148;-76
2022/06/05 08:11:29;;;;;;;4.68;3.80;;;19.00;99.90;;;;;;5029769;28;20344;-76
2022/06/05 08:13:55;;;;;;;;;;;19.00;99.90;;;;;;5005253;28;20053;-76
2022/06/05 08:16:20;;;;;;;4.38;3.70;;;19.10;99.90;;;;;;5029611;28;20010;-76
2022/06/05 08:18:46;;;;;;;;;;;19.20;99.90;;;;;;5024508;28;20093;-76
2022/06/05 08:21:11;;;;;;;4.88;3.47;;;19.30;99.90;;;;;;5031540;28;19920;-75
2022/06/05 08:23:37;;;;;;;;;;;19.50;99.90;;;;;;5024724;28;20041;-75
2022/06/05 08:26:03;;;;;;;3.80;3.38;;;19.60;99.90;;;;;;5013358;28;19971;-77
2022/06/05 08:28:30;;;;;;;3.28;2.60;;;19.80;99.90;;;;;;5031116;28;20099;-76
2022/06/05 08:30:55;;;;;;;3.47;2.90;;;20.10;99.90;;;;;;5032669;28;20041;-77
2022/06/05 08:33:22;;;;;;;;;;;20.10;99.90;;;;;;5030503;28;20069;-77
2022/06/05 08:35:51;;;;;;;3.13;2.70;;;20.30;99.90;;;;;;5013440;28;19917;-77
2022/06/05 08:41:28;;;;;;;3.53;2.95;;;20.40;99.90;;;;;;5020778;28;20400;-76
2022/06/05 08:44:00;;;;;;;4.65;3.40;;;20.50;99.90;;;;;;5030580;28;20120;-76
2022/06/05 08:46:31;;;;;;;4.25;3.70;;;20.50;99.90;;;;;;5025009;28;20088;-76
2022/06/05 08:49:01;;;;;;;3.08;2.53;;;20.60;99.90;;;;;;5006084;28;20053;-74
2022/06/05 08:51:30;;;;;;;4.00;3.53;;;20.80;99.90;;;;;;5028564;28;20053;-76
2022/06/05 08:54:03;;;;;;;3.83;3.40;;;20.70;99.90;;;;;;5024395;28;20045;-75
2022/06/05 08:56:39;;;;;;;5.45;3.55;;;20.70;99.90;;;;;;5024206;28;20049;-76
2022/06/05 08:59:37;;;;;;;3.28;2.97;;;20.70;99.90;;;;;;5028244;28;20040;-77
2022/06/05 09:02:17;;;;;;;3.05;2.45;;;21.00;99.90;;;;;;5027551;28;20115;-76
2022/06/05 09:05:12;;;;;;;3.65;2.90;;;21.20;99.90;;;;;;5022822;28;20125;-76
2022/06/05 09:07:43;;;;;;;2.92;2.63;;;21.20;99.90;;;;;;5029404;28;20045;-76
2022/06/05 09:10:35;;;;;;;3.75;2.40;;;21.40;99.90;;;;;;5028435;28;20053;-78
2022/06/05 09:13:26;;;;;;;3.53;3.22;;;21.50;99.90;;;;;;5021839;28;20042;-77
2022/06/05 09:15:59;;;;;;;2.78;2.30;;;21.30;99.90;;;;;;5027383;28;20144;-79
2022/06/05 09:18:30;;;;;;;5.22;3.40;;;21.30;99.90;;;;;;5028288;28;20099;-79
2022/06/05 09:20:59;;;;;;;4.78;3.08;;;21.30;99.90;;;;;;5012823;28;20055;-78
2022/06/05 09:23:47;;;;;;;3.30;3.00;;;21.20;99.90;;;;;;5012467;28;20140;-79
2022/06/05 09:26:19;;;;;;;3.50;3.20;;;21.10;99.90;;;;;;5025812;28;20529;-79
2022/06/05 09:29:09;;;;;;;3.28;2.47;;;21.20;99.90;;;;;;5025393;28;20052;-78
2022/06/05 09:31:57;;;;;;;4.00;2.42;;;21.30;99.90;;;;;;5025876;28;20260;-81
2022/06/05 09:34:29;;;;;;;2.40;2.17;;;21.40;99.90;;;;;;5027993;28;20116;-79
2022/06/05 09:37:03;;;;;;;2.22;2.03;;;21.60;99.90;;;;;;5029804;28;20142;-79
2022/06/05 09:39:35;;;;;;;3.05;2.08;;;21.80;99.90;;;;;;5028260;28;20038;-82
2022/06/05 09:42:18;;;;;;;2.78;2.20;;;22.10;99.90;;;;;;5030842;28;20048;-81
2022/06/05 09:44:56;;;;;;;5.38;2.80;;;22.30;99.90;;;;;;5020469;28;20049;-83
2022/06/05 09:47:28;;;;;;;3.22;2.47;;;22.50;99.90;;;;;;5015349;28;20037;-82
2022/06/05 09:50:00;;;;;;;3.17;2.33;;;22.70;99.90;;;;;;5028399;28;20087;-82
2022/06/05 09:52:29;;;;;;;3.40;2.92;;;22.90;99.90;;;;;;5028803;28;20053;-79
2022/06/05 09:55:10;;;;;;;2.75;2.45;;;22.90;99.90;;;;;;5011007;28;20047;-78
2022/06/05 10:01:18;;;;;;;3.60;2.90;;;23.00;99.90;;;;;;5035242;28;20061;-79
2022/06/05 10:03:44;;;;;;;2.70;2.50;;;23.20;99.90;;;;;;5028254;28;20534;-79
2022/06/05 10:06:11;;;;;;;3.38;2.50;;;23.00;99.90;;;;;;5030808;28;20059;-79
2022/06/05 10:08:43;;;;;;;2.20;2.00;;;23.10;99.90;;;;;;5018073;28;20038;-78
2022/06/05 10:11:39;;;;;;;3.35;2.40;;;23.10;99.90;;;;;;5021549;28;20046;-76
2022/06/05 10:14:16;;;;;;;3.53;2.67;;;23.10;99.90;;;;;;5023759;28;20037;-78
2022/06/05 10:17:01;;;;;;;2.30;2.08;;;23.10;99.90;;;;;;5013403;28;20045;-84
2022/06/05 10:19:48;;;;;;;4.40;2.40;;;23.10;99.90;;;;;;5012225;28;20057;-86
2022/06/05 10:22:23;;;;;;;3.00;2.30;;;23.20;99.90;;;;;;5020027;28;20095;-76
2022/06/05 10:25:17;;;;;;;2.28;2.08;;;23.40;99.90;;;;;;5022284;28;20091;-72
2022/06/05 10:28:15;;;;;;;3.05;2.30;;;23.70;99.90;;;;;;5012209;28;20406;-74
2022/06/05 10:31:06;;;;;;;3.25;2.25;;;24.00;99.90;;;;;;4999185;28;20120;-76
2022/06/05 10:33:38;;;;;;;2.83;2.50;;;24.10;99.90;;;;;;5026340;28;20131;-76
2022/06/05 10:36:14;;;;;;;3.03;2.28;;;24.00;99.90;;;;;;5028655;28;20544;-77
2022/06/05 10:39:10;;;;;;;3.03;2.50;;;24.10;99.60;;;;;;5021157;28;20056;-76
2022/06/05 10:41:44;;;;;;;3.28;2.45;;;24.10;98.90;;;;;;5008970;28;20049;-72
2022/06/05 10:44:31;;;;;;;4.00;2.20;;;24.20;98.80;;;;;;5019298;28;20064;-73
2022/06/05 10:47:17;;;;;;;2.58;2.33;;;24.30;98.30;;;;;;5022130;28;20182;-73
2022/06/05 10:50:02;;;;;;;2.40;2.00;;;24.20;98.30;;;;;;5027082;28;20571;-72
2022/06/05 10:52:34;;;;;;;2.90;2.28;;;24.20;99.40;;;;;;5027088;28;20088;-73
2022/06/05 10:55:18;;;;;;;2.85;2.13;;;24.10;98.40;;;;;;5024965;28;20041;-74
2022/06/05 10:58:01;;;;;;;2.50;2.30;;;24.00;99.30;;;;;;5025447;28;20112;-74
2022/06/05 11:00:37;;;;;;;2.75;2.38;;;23.90;98.80;;;;;;5026374;28;20037;-75
2022/06/05 11:03:08;;;;;;;;;;;23.70;98.00;;;;;;5025911;28;20148;-74
2022/06/05 11:06:11;;;;;;;2.60;2.40;;;23.60;98.30;;;;;;5026021;28;19924;-74
2022/06/05 11:08:52;;;;;;;2.95;2.15;;;23.60;99.80;;;;;;5022052;28;20041;-73
2022/06/05 11:14:19;;;;;;;4.07;2.85;;;23.50;99.90;;;;;;5018507;28;20099;-72
2022/06/05 11:17:23;;;;;;;2.85;2.53;;;23.40;99.90;;;;;;5013877;28;20042;-73
2022/06/05 11:19:54;;;;;;;2.97;2.60;;;23.50;99.90;;;;;;5025453;28;20049;-73
2022/06/05 11:22:21;;;;;;;5.00;2.60;;;23.40;99.90;;;;;;5011358;28;20069;-72
2022/06/05 11:24:53;;;;;;;2.72;2.40;;;23.30;99.90;;;;;;5026960;28;20508;-73
2022/06/05 11:27:29;;;;;;;3.40;2.90;;;23.30;99.90;;;;;;5027317;28;20124;-73
2022/06/05 11:30:03;;;;;;;3.13;2.42;;;23.30;99.90;;;;;;5011214;28;20045;-72
2022/06/05 11:32:32;;;;;;;2.90;2.60;;;23.40;99.80;;;;;;5026975;28;20438;-74
2022/06/05 11:35:11;;;;;;;2.17;1.98;;;23.50;99.90;;;;;;5023302;28;20070;-75
2022/06/05 11:37:59;;;;;;;2.55;2.00;;;23.70;99.90;;;;;;5003727;28;20144;-78
2022/06/05 11:40:46;;;;;;;3.08;2.22;;;23.80;98.80;;;;;;5024147;28;20046;-76
2022/06/05 11:43:24;;;;;;;4.00;2.17;;;23.80;99.20;;;;;;5018484;28;20073;-75
2022/06/05 11:45:53;;;;;;;2.95;2.40;;;24.00;99.90;;;;;;5025765;28;20041;-78
2022/06/05 11:48:27;;;;;;;2.63;2.13;;;24.00;99.90;;;;;;5028047;28;20073;-78
2022/06/05 11:51:11;;;;;;;3.20;2.47;;;24.00;98.90;;;;;;5030227;28;20049;-79
2022/06/05 11:53:56;;;;;;;2.97;2.60;;;23.90;97.70;;;;;;5022951;28;20057;-77
2022/06/05 11:56:25;;;;;;;2.97;2.67;;;23.90;99.70;;;;;;5023712;28;20482;-77
2022/06/05 11:59:07;;;;;;;3.75;2.33;;;23.80;98.70;;;;;;5017173;28;20052;-78
2022/06/05 12:01:38;;;;;;;3.60;2.80;;;23.90;98.60;;;;;;5018663;28;20037;-78
2022/06/05 12:04:33;;;;;;;3.45;2.70;;;23.80;97.90;;;;;;5025999;28;20116;-78
2022/06/05 12:07:04;;;;;;;3.33;2.83;;;23.70;98.20;;;;;;5029414;28;20053;-79
2022/06/05 12:09:38;;;;;;;4.28;2.55;;;23.60;98.20;;;;;;5026735;28;20065;-79
2022/06/05 12:12:17;;;;;;;4.00;2.47;;;23.60;98.60;;;;;;5028991;28;20046;-77
2022/06/05 12:14:50;;;;;;;2.88;2.30;;;23.60;98.40;;;;;;5014017;28;20130;-77
2022/06/05 12:17:39;;;;;;;2.65;2.45;;;23.70;99.60;;;;;;5031013;28;20051;-78
2022/06/05 12:20:24;;;;;;;2.83;2.15;;;23.70;98.60;;;;;;5028398;28;20061;-77
2022/06/05 12:23:08;;;;;;;2.67;2.15;;;23.80;98.90;;;;;;5029238;28;20056;-77
2022/06/05 12:25:48;;;;;;;2.63;2.38;;;24.00;98.90;;;;;;5007538;28;20061;-79
2022/06/05 12:28:42;;;;;;;3.03;2.28;;;24.00;98.90;;;;;;5006165;28;20048;-77
2022/06/05 12:31:19;;;;;;;4.65;2.40;;;24.20;98.50;;;;;;5002869;28;20057;-78
2022/06/05 12:34:07;;;;;;;3.53;2.40;;;24.10;97.40;;;;;;5023328;28;20647;-77
2022/06/05 12:36:39;;;;;;;4.60;2.30;;;24.20;97.80;;;;;;5029207;28;20373;-75
2022/06/05 12:39:17;;;;;;;2.83;2.20;;;24.10;97.50;;;;;;5025684;28;20045;-75
2022/06/05 12:42:12;;;;;;;3.15;2.30;;;24.20;96.80;;;;;;5017845;28;20037;-75
2022/06/05 12:44:53;;;;;;;4.40;2.30;;;24.20;97.20;;;;;;5030095;28;20046;-74
2022/06/05 12:47:39;;;;;;;2.33;2.05;;;24.20;97.00;;;;;;5019483;28;20034;-75
2022/06/05 12:50:17;;;;;;;2.97;2.10;;;24.20;96.60;;;;;;5028935;28;20148;-76
2022/06/05 12:53:09;;;;;;;4.60;2.50;;;24.20;96.80;;;;;;5018952;28;20120;-75
2022/06/05 12:56:01;;;;;;;4.18;2.78;;;24.10;96.90;;;;;;5027464;28;20061;-75
2022/06/05 12:58:50;;;;;;;2.83;2.40;;;24.00;97.00;;;;;;5010591;28;20204;-74
2022/06/05 13:01:44;;;;;;;2.88;2.38;;;23.90;97.40;;;;;;5010275;28;20338;-74
2022/06/05 13:04:20;;;;;;;3.60;2.45;;;23.80;97.60;;;;;;5033457;28;20057;-75
2022/06/05 13:07:14;;;;;;;2.97;2.25;;;23.80;97.00;;;;;;5030893;28;20048;-75
2022/06/05 13:09:46;;;;;;;4.47;2.13;;;23.80;97.80;;;;;;5003940;28;20045;-75
2022/06/05 13:12:40;;;;;;;2.60;2.20;;;23.90;98.50;;;;;;5025344;28;20108;-75
2022/06/05 13:15:38;;;;;;;2.85;2.22;;;23.90;98.40;;;;;;5026987;28;20049;-74
2022/06/05 13:18:22;;;;;;;2.72;2.22;;;23.90;98.70;;;;;;5026754;28;20304;-74
2022/06/05 13:21:13;;;;;;;3.33;2.75;;;23.80;98.20;;;;;;5027340;28;20049;-75
2022/06/05 13:24:02;;;;;;;3.30;2.50;;;23.60;97.50;;;;;;5027422;28;20104;-73
2022/06/05 13:26:37;;;;;;;2.95;2.40;;;23.50;98.00;;;;;;5004551;28;20053;-71
2022/06/05 13:29:25;;;;;;;2.53;2.05;;;23.50;98.90;;;;;;5018942;28;20049;-71
2022/06/05 13:32:03;;;;;;;3.70;2.10;;;23.60;99.30;;;;;;5025239;28;20095;-73
2022/06/05 13:34:43;;;;;;;2.97;2.25;;;23.60;98.80;;;;;;5029937;28;20037;-73
2022/06/05 13:37:19;;;;;;;2.80;2.17;;;23.60;98.60;;;;;;5026802;28;20827;-72
2022/06/05 13:40:01;;;;;;;2.17;1.90;;;23.60;98.80;;;;;;5026716;28;20140;-73